createdAt,value
2019-03-23T00:01:18.886Z,10.17
2019-03-23T00:06:30.817Z,10.27
2019-03-23T00:11:33.674Z,8.10
2019-03-23T00:16:40.065Z,8.73
2019-03-23T00:21:46.494Z,10.40
2019-03-23T00:26:52.781Z,10.87
2019-03-23T00:31:59.566Z,10.67
2019-03-23T00:37:05.572Z,9.20
2019-03-23T00:42:11.788Z,10.53
2019-03-23T00:47:17.965Z,7.43
2019-03-23T00:52:23.870Z,10.33
2019-03-23T00:57:29.661Z,10.80
2019-03-23T01:02:35.578Z,9.80
2019-03-23T01:07:41.427Z,8.60
2019-03-23T01:12:48.339Z,11.33
2019-03-23T01:17:54.191Z,10.37
2019-03-23T01:23:00.155Z,9.30
2019-03-23T01:28:06.016Z,8.23
2019-03-23T01:33:11.891Z,8.93
2019-03-23T01:38:17.743Z,8.83
2019-03-23T01:43:23.603Z,10.10
2019-03-23T01:48:29.558Z,8.20
2019-03-23T01:53:35.407Z,9.93
2019-03-23T01:58:41.262Z,9.03
2019-03-23T02:03:47.111Z,8.63
2019-03-23T02:08:53.192Z,10.33
2019-03-23T02:13:59.056Z,8.30
2019-03-23T02:19:04.987Z,9.10
2019-03-23T02:24:10.834Z,10.53
2019-03-23T02:29:16.687Z,12.83
2019-03-23T02:34:22.574Z,12.97
2019-03-23T02:39:28.410Z,10.30
2019-03-23T02:44:34.569Z,8.47
2019-03-23T02:49:40.447Z,11.73
2019-03-23T02:54:46.297Z,10.57
2019-03-23T02:59:52.173Z,10.00
2019-03-23T03:04:58.081Z,9.90
2019-03-23T03:10:04.257Z,8.37
2019-03-23T03:15:10.448Z,8.23
2019-03-23T03:20:16.337Z,10.80
2019-03-23T03:25:22.192Z,9.97
2019-03-23T03:30:28.052Z,11.43
2019-03-23T03:35:33.898Z,10.83
2019-03-23T03:40:40.296Z,12.50
2019-03-23T03:45:46.124Z,8.80
2019-03-23T03:50:52.020Z,11.10
2019-03-23T03:55:57.876Z,8.70
2019-03-23T04:01:03.772Z,10.97
2019-03-23T04:06:09.625Z,11.40
2019-03-23T04:11:15.469Z,9.93
2019-03-23T04:16:21.315Z,12.53
2019-03-23T04:21:27.157Z,13.17
2019-03-23T04:26:33.015Z,14.50
2019-03-23T04:31:38.903Z,11.27
2019-03-23T04:36:44.775Z,10.60
2019-03-23T04:41:50.608Z,11.30
2019-03-23T04:46:56.436Z,11.80
2019-03-23T04:52:02.280Z,10.90
2019-03-23T04:57:08.118Z,12.03
2019-03-23T05:02:13.951Z,12.97
2019-03-23T05:07:19.802Z,11.03
2019-03-23T05:12:25.621Z,14.33
2019-03-23T05:17:31.480Z,16.00
2019-03-23T05:22:37.322Z,15.83
2019-03-23T05:27:43.279Z,15.63
2019-03-23T05:32:49.182Z,14.53
2019-03-23T05:37:55.147Z,16.07
2019-03-23T05:43:01.035Z,22.97
2019-03-23T05:48:06.867Z,15.40
2019-03-23T05:53:12.711Z,15.13
2019-03-23T05:58:18.559Z,15.53
2019-03-23T06:03:24.440Z,12.73
2019-03-23T06:08:31.366Z,16.43
2019-03-23T06:13:37.237Z,11.97
2019-03-23T06:18:43.100Z,16.50
2019-03-23T06:23:48.959Z,13.20
2019-03-23T06:28:54.856Z,13.20
2019-03-23T06:34:00.754Z,12.27
2019-03-23T06:39:08.270Z,13.43
2019-03-23T06:44:14.111Z,14.80
2019-03-23T06:49:19.977Z,11.30
2019-03-23T06:54:25.833Z,10.70
2019-03-23T06:59:31.664Z,9.60
2019-03-23T07:04:37.520Z,10.33
2019-03-23T07:09:43.411Z,11.27
2019-03-23T07:14:49.268Z,13.10
2019-03-23T07:19:55.120Z,10.73
2019-03-23T07:25:00.973Z,11.03
2019-03-23T07:30:09.487Z,15.93
2019-03-23T07:35:16.235Z,11.80
2019-03-23T07:40:22.088Z,12.60
2019-03-23T07:45:27.955Z,12.43
2019-03-23T07:50:33.914Z,14.00
2019-03-23T07:55:39.762Z,11.83
2019-03-23T08:00:45.643Z,11.77
2019-03-23T08:05:51.494Z,14.83
2019-03-23T08:10:57.342Z,13.73
2019-03-23T08:16:03.226Z,15.03
2019-03-23T08:21:09.091Z,14.43
2019-03-23T08:26:14.939Z,13.07
2019-03-23T08:31:20.834Z,16.90
2019-03-23T08:36:26.717Z,14.90
2019-03-23T08:41:32.582Z,14.70
2019-03-23T08:46:38.467Z,17.07
2019-03-23T08:51:44.351Z,19.40
2019-03-23T08:56:50.304Z,15.17
2019-03-23T09:01:56.163Z,18.83
2019-03-23T09:07:02.032Z,18.50
2019-03-23T09:12:08.450Z,16.70
2019-03-23T09:17:14.318Z,18.07
2019-03-23T09:22:20.356Z,21.43
2019-03-23T09:27:34.316Z,20.23
2019-03-23T09:32:40.868Z,22.43
2019-03-23T09:37:47.243Z,18.93
2019-03-23T09:42:53.778Z,21.43
2019-03-23T09:48:00.098Z,18.33
2019-03-23T09:53:06.318Z,20.57
2019-03-23T09:58:12.450Z,21.63
2019-03-23T10:03:19.450Z,20.53
2019-03-23T10:08:26.151Z,19.23
2019-03-23T10:13:32.147Z,20.37
2019-03-23T10:18:38.102Z,23.20
2019-03-23T10:23:44.329Z,22.50
2019-03-23T10:28:50.459Z,25.57
2019-03-23T10:33:57.336Z,22.63
2019-03-23T10:39:04.918Z,23.20
2019-03-23T10:44:11.690Z,23.90
2019-03-23T10:49:18.007Z,22.83
2019-03-23T10:54:25.618Z,22.17
2019-03-23T10:59:32.146Z,24.37
2019-03-23T11:04:38.971Z,24.25
2019-03-23T11:09:44.948Z,22.80
2019-03-23T11:14:51.908Z,23.85
2019-03-23T11:19:58.964Z,20.45
2019-03-23T11:25:07.269Z,25.97
2019-03-23T11:30:15.214Z,25.82
2019-03-23T11:35:21.727Z,24.40
2019-03-23T11:40:28.667Z,27.58
2019-03-23T11:45:34.934Z,22.13
2019-03-23T11:50:41.682Z,24.30
2019-03-23T11:55:48.254Z,23.80
2019-03-23T12:00:54.955Z,25.88
2019-03-23T12:06:02.287Z,26.45
2019-03-23T12:11:09.046Z,26.82
2019-03-23T12:16:16.024Z,27.52
2019-03-23T12:21:22.278Z,25.02
2019-03-23T12:26:29.582Z,24.07
2019-03-23T12:31:41.380Z,24.18
2019-03-23T12:36:48.014Z,25.05
2019-03-23T12:41:55.709Z,23.92
2019-03-23T12:47:02.708Z,26.23
2019-03-23T12:52:12.005Z,25.97
2019-03-23T12:57:22.643Z,29.23
2019-03-23T13:02:31.383Z,31.10
2019-03-23T13:07:40.304Z,31.00
2019-03-23T13:12:47.853Z,30.48
2019-03-23T13:17:55.768Z,31.65
2019-03-23T13:23:05.725Z,29.05
2019-03-23T13:28:17.050Z,31.93
2019-03-23T13:33:31.821Z,34.85
2019-03-23T13:38:47.295Z,34.60
2019-03-23T13:43:57.101Z,36.50
2019-03-23T13:49:16.413Z,34.75
2019-03-23T13:54:27.145Z,38.00
2019-03-23T13:59:41.555Z,35.70
2019-03-23T14:04:50.311Z,32.75
2019-03-23T14:09:57.835Z,38.05
2019-03-23T14:15:07.918Z,35.65
2019-03-23T14:20:17.011Z,37.75
2019-03-23T14:25:23.543Z,35.78
2019-03-23T14:30:29.461Z,37.30
2019-03-23T14:35:40.673Z,38.80
2019-03-23T14:40:50.123Z,40.05
2019-03-23T14:46:03.487Z,37.88
2019-03-23T14:51:19.501Z,36.17
2019-03-23T14:56:31.550Z,36.75
2019-03-23T15:01:39.931Z,37.23
2019-03-23T15:06:54.672Z,38.23
2019-03-23T15:12:14.553Z,39.27
2019-03-23T15:17:19.856Z,41.13
2019-03-23T15:22:29.825Z,39.90
2019-03-23T15:27:39.593Z,40.58
2019-03-23T15:32:54.031Z,38.17
2019-03-23T15:38:06.949Z,42.53
2019-03-23T15:43:32.920Z,41.80
2019-03-23T15:48:43.382Z,45.05
2019-03-23T15:53:52.450Z,44.55
2019-03-23T15:59:03.858Z,45.52
2019-03-23T16:04:11.219Z,43.95
2019-03-23T16:09:19.147Z,45.03
2019-03-23T16:14:26.862Z,43.98
2019-03-23T16:19:34.347Z,43.52
2019-03-23T16:24:40.216Z,45.97
2019-03-23T16:29:46.300Z,46.43
2019-03-23T16:34:52.280Z,47.53
2019-03-23T16:39:59.052Z,43.63
2019-03-23T16:45:06.347Z,43.27
2019-03-23T16:50:12.788Z,41.30
2019-03-23T16:55:19.113Z,39.60
2019-03-23T17:00:38.956Z,41.80
2019-03-23T17:05:45.396Z,41.90
2019-03-23T17:10:51.407Z,43.20
2019-03-23T17:15:57.335Z,42.57
2019-03-23T17:21:03.559Z,46.60
2019-03-23T17:26:09.508Z,43.47
2019-03-23T17:31:15.903Z,43.87
2019-03-23T17:36:21.847Z,43.53
2019-03-23T17:41:27.736Z,44.07
2019-03-23T17:46:33.636Z,45.27
2019-03-23T17:51:39.766Z,47.73
2019-03-23T17:56:45.798Z,46.37
2019-03-23T18:01:52.124Z,47.00
2019-03-23T18:06:58.271Z,46.33
2019-03-23T18:12:04.471Z,44.63
2019-03-23T18:17:10.421Z,52.93
2019-03-23T18:22:17.652Z,50.50
2019-03-23T18:27:23.879Z,49.20
2019-03-23T18:32:29.947Z,47.70
2019-03-23T18:37:35.822Z,47.13
2019-03-23T18:42:44.546Z,44.53
2019-03-23T18:47:50.482Z,45.40
2019-03-23T18:52:56.447Z,48.60
2019-03-23T18:58:02.326Z,43.13
2019-03-23T19:03:08.534Z,42.90
2019-03-23T19:08:14.476Z,43.03
2019-03-23T19:13:20.319Z,40.30
2019-03-23T19:18:26.235Z,39.67
2019-03-23T19:23:34.583Z,49.53
2019-03-23T19:28:42.971Z,44.93
2019-03-23T19:33:49.985Z,43.47
2019-03-23T19:38:56.018Z,44.90
2019-03-23T19:44:01.978Z,43.57
2019-03-23T19:49:07.847Z,43.70
2019-03-23T19:54:13.760Z,43.90
2019-03-23T19:59:20.150Z,43.50
2019-03-23T20:04:27.043Z,44.57
2019-03-23T20:09:33.542Z,37.03
2019-03-23T20:14:41.745Z,38.70
2019-03-23T20:19:48.778Z,41.20
2019-03-23T20:24:56.041Z,48.17
2019-03-23T20:30:03.738Z,45.73
2019-03-23T20:35:11.615Z,41.07
2019-03-23T20:40:17.576Z,48.17
2019-03-23T20:45:30.623Z,38.93
2019-03-23T20:50:39.486Z,40.10
2019-03-23T20:55:46.910Z,40.80
2019-03-23T21:00:53.568Z,44.33
2019-03-23T21:05:59.542Z,39.80
2019-03-23T21:11:05.774Z,35.60
2019-03-23T21:16:14.500Z,39.77
2019-03-23T21:21:20.789Z,40.57
2019-03-23T21:26:26.679Z,40.70
2019-03-23T21:31:32.650Z,41.33
2019-03-23T21:36:40.061Z,36.70
2019-03-23T21:41:47.969Z,39.07
2019-03-23T21:46:54.207Z,43.07
2019-03-23T21:52:00.184Z,41.87
2019-03-23T21:57:06.086Z,36.00
2019-03-23T22:02:18.094Z,36.63
2019-03-23T22:07:25.819Z,35.97
2019-03-23T22:12:33.289Z,34.43
2019-03-23T22:17:39.302Z,34.90
2019-03-23T22:22:49.083Z,32.43
2019-03-23T22:27:55.438Z,33.73
2019-03-23T22:33:01.752Z,29.70
2019-03-23T22:38:14.332Z,28.27
2019-03-23T22:43:20.439Z,33.73
2019-03-23T22:48:28.326Z,29.07
2019-03-23T22:53:34.862Z,34.60
2019-03-23T22:58:40.879Z,33.00
2019-03-23T23:03:46.851Z,34.97
2019-03-23T23:08:52.816Z,34.17
2019-03-23T23:13:58.776Z,31.63
2019-03-23T23:19:04.688Z,32.60
2019-03-23T23:24:10.558Z,31.37
2019-03-23T23:29:16.478Z,29.97
2019-03-23T23:34:22.405Z,30.23
2019-03-23T23:39:28.326Z,28.70
2019-03-23T23:44:34.208Z,28.30
2019-03-23T23:49:40.129Z,26.63
2019-03-23T23:54:45.966Z,29.17
2019-03-23T23:59:51.812Z,31.87
